sensor_id;sensor_type;location;lat;lon;timestamp;temperature;humidity
2973;DHT22;1496;51.404;7.232;2022-11-11T00:00:06;9.40;99.90
2973;DHT22;1496;51.404;7.232;2022-11-11T00:02:50;9.40;99.90
2973;DHT22;1496;51.404;7.232;2022-11-11T00:05:34;9.40;99.90
2973;DHT22;1496;51.404;7.232;2022-11-11T00:08:19;9.40;99.90
2973;DHT22;1496;51.404;7.232;2022-11-11T00:11:06;9.40;99.90
2973;DHT22;1496;51.404;7.232;2022-11-11T00:13:51;9.40;99.90
2973;DHT22;1496;51.404;7.232;2022-11-11T00:16:37;9.40;99.90
2973;DHT22;1496;51.404;7.232;2022-11-11T00:19:40;9.40;99.90
2973;DHT22;1496;51.404;7.232;2022-11-11T00:22:43;9.20;99.90
2973;DHT22;1496;51.404;7.232;2022-11-11T00:25:46;9.30;99.90
2973;DHT22;1496;51.404;7.232;2022-11-11T00:28:30;9.30;99.90
2973;DHT22;1496;51.404;7.232;2022-11-11T00:31:14;9.40;99.90
2973;DHT22;1496;51.404;7.232;2022-11-11T00:33:58;9.40;99.90
2973;DHT22;1496;51.404;7.232;2022-11-11T00:36:42;9.30;99.90
2973;DHT22;1496;51.404;7.232;2022-11-11T00:39:26;9.20;99.90
2973;DHT22;1496;51.404;7.232;2022-11-11T00:42:11;9.20;99.90
2973;DHT22;1496;51.404;7.232;2022-11-11T00:44:55;9.20;99.90
2973;DHT22;1496;51.404;7.232;2022-11-11T00:47:39;9.20;99.90
2973;DHT22;1496;51.404;7.232;2022-11-11T00:50:46;9.10;99.90
2973;DHT22;1496;51.404;7.232;2022-11-11T00:53:44;9.20;99.90
2973;DHT22;1496;51.404;7.232;2022-11-11T00:56:29;9.20;99.90
2973;DHT22;1496;51.404;7.232;2022-11-11T00:59:14;9.10;99.90
2973;DHT22;1496;51.404;7.232;2022-11-11T01:01:58;9.10;99.90
2973;DHT22;1496;51.404;7.232;2022-11-11T01:04:42;9.10;99.90
2973;DHT22;1496;51.404;7.232;2022-11-11T01:07:27;9.10;99.90
2973;DHT22;1496;51.404;7.232;2022-11-11T01:10:11;9.10;99.90
2973;DHT22;1496;51.404;7.232;2022-11-11T01:12:58;9.10;99.90
2973;DHT22;1496;51.404;7.232;2022-11-11T01:15:59;9.10;99.90
2973;DHT22;1496;51.404;7.232;2022-11-11T01:18:43;9.10;99.90
2973;DHT22;1496;51.404;7.232;2022-11-11T01:21:28;9.10;99.90
2973;DHT22;1496;51.404;7.232;2022-11-11T01:24:12;9.10;99.90
2973;DHT22;1496;51.404;7.232;2022-11-11T01:26:56;9.10;99.90
2973;DHT22;1496;51.404;7.232;2022-11-11T01:29:40;9.10;99.90
2973;DHT22;1496;51.404;7.232;2022-11-11T01:32:24;9.10;99.90
2973;DHT22;1496;51.404;7.232;2022-11-11T01:35:09;9.10;99.90
2973;DHT22;1496;51.404;7.232;2022-11-11T01:37:53;9.10;99.90
2973;DHT22;1496;51.404;7.232;2022-11-11T01:40:42;9.10;99.90
2973;DHT22;1496;51.404;7.232;2022-11-11T01:43:28;9.10;99.90
2973;DHT22;1496;51.404;7.232;2022-11-11T01:46:34;9.20;99.90
2973;DHT22;1496;51.404;7.232;2022-11-11T01:49:39;9.10;99.90
2973;DHT22;1496;51.404;7.232;2022-11-11T01:52:37;9.10;99.90
2973;DHT22;1496;51.404;7.232;2022-11-11T01:55:23;9.10;99.90
2973;DHT22;1496;51.404;7.232;2022-11-11T01:58:12;9.10;99.90
2973;DHT22;1496;51.404;7.232;2022-11-11T02:00:59;9.10;99.90
2973;DHT22;1496;51.404;7.232;2022-11-11T02:03:49;9.20;99.90
2973;DHT22;1496;51.404;7.232;2022-11-11T02:06:55;9.10;99.90
2973;DHT22;1496;51.404;7.232;2022-11-11T02:09:44;9.20;99.90
2973;DHT22;1496;51.404;7.232;2022-11-11T02:12:30;9.20;99.90
2973;DHT22;1496;51.404;7.232;2022-11-11T02:15:34;9.30;99.90
2973;DHT22;1496;51.404;7.232;2022-11-11T02:18:18;9.30;99.90
2973;DHT22;1496;51.404;7.232;2022-11-11T02:21:03;9.20;99.90
2973;DHT22;1496;51.404;7.232;2022-11-11T02:24:07;9.20;99.90
2973;DHT22;1496;51.404;7.232;2022-11-11T02:26:54;9.20;99.90
2973;DHT22;1496;51.404;7.232;2022-11-11T02:29:41;9.20;99.90
2973;DHT22;1496;51.404;7.232;2022-11-11T02:32:26;9.20;99.90
2973;DHT22;1496;51.404;7.232;2022-11-11T02:35:17;9.20;99.90
2973;DHT22;1496;51.404;7.232;2022-11-11T02:38:04;9.20;99.90
2973;DHT22;1496;51.404;7.232;2022-11-11T02:40:52;9.30;99.90
2973;DHT22;1496;51.404;7.232;2022-11-11T02:44:15;9.20;99.90
2973;DHT22;1496;51.404;7.232;2022-11-11T02:46:59;9.20;99.90
2973;DHT22;1496;51.404;7.232;2022-11-11T02:49:43;9.20;99.90
2973;DHT22;1496;51.404;7.232;2022-11-11T02:52:28;9.20;99.90
2973;DHT22;1496;51.404;7.232;2022-11-11T02:55:13;9.20;99.90
2973;DHT22;1496;51.404;7.232;2022-11-11T02:57:57;9.20;99.90
2973;DHT22;1496;51.404;7.232;2022-11-11T03:00:42;9.10;99.90
2973;DHT22;1496;51.404;7.232;2022-11-11T03:03:27;9.20;99.90
2973;DHT22;1496;51.404;7.232;2022-11-11T03:06:11;9.20;99.90
2973;DHT22;1496;51.404;7.232;2022-11-11T03:08:55;9.20;99.90
2973;DHT22;1496;51.404;7.232;2022-11-11T03:11:39;9.20;99.90
2973;DHT22;1496;51.404;7.232;2022-11-11T03:14:26;9.20;99.90
2973;DHT22;1496;51.404;7.232;2022-11-11T03:17:11;9.20;99.90
2973;DHT22;1496;51.404;7.232;2022-11-11T03:20:16;9.20;99.90
2973;DHT22;1496;51.404;7.232;2022-11-11T03:23:20;9.00;99.90
2973;DHT22;1496;51.404;7.232;2022-11-11T03:26:04;9.00;99.90
2973;DHT22;1496;51.404;7.232;2022-11-11T03:28:48;8.90;99.90
2973;DHT22;1496;51.404;7.232;2022-11-11T03:31:33;8.90;99.90
2973;DHT22;1496;51.404;7.232;2022-11-11T03:34:17;8.90;99.90
2973;DHT22;1496;51.404;7.232;2022-11-11T03:37:02;8.80;99.90
2973;DHT22;1496;51.404;7.232;2022-11-11T03:40:05;8.90;99.90
2973;DHT22;1496;51.404;7.232;2022-11-11T03:42:50;8.90;99.90
2973;DHT22;1496;51.404;7.232;2022-11-11T03:45:34;8.80;99.90
2973;DHT22;1496;51.404;7.232;2022-11-11T03:48:19;8.80;99.90
2973;DHT22;1496;51.404;7.232;2022-11-11T03:51:04;8.80;99.90
2973;DHT22;1496;51.404;7.232;2022-11-11T03:53:48;8.80;99.90
2973;DHT22;1496;51.404;7.232;2022-11-11T03:56:32;8.80;99.90
2973;DHT22;1496;51.404;7.232;2022-11-11T03:59:16;8.80;99.90
2973;DHT22;1496;51.404;7.232;2022-11-11T04:02:00;8.90;99.90
2973;DHT22;1496;51.404;7.232;2022-11-11T04:05:04;8.90;99.90
2973;DHT22;1496;51.404;7.232;2022-11-11T04:08:12;9.00;99.90
2973;DHT22;1496;51.404;7.232;2022-11-11T04:12:02;9.00;99.90
2973;DHT22;1496;51.404;7.232;2022-11-11T04:14:27;9.00;99.90
2973;DHT22;1496;51.404;7.232;2022-11-11T04:17:31;9.00;99.90
2973;DHT22;1496;51.404;7.232;2022-11-11T04:20:15;9.00;99.90
2973;DHT22;1496;51.404;7.232;2022-11-11T04:23:18;9.10;99.90
2973;DHT22;1496;51.404;7.232;2022-11-11T04:26:03;9.10;99.90
2973;DHT22;1496;51.404;7.232;2022-11-11T04:28:48;9.10;99.90
2973;DHT22;1496;51.404;7.232;2022-11-11T04:31:51;9.00;99.90
2973;DHT22;1496;51.404;7.232;2022-11-11T04:34:56;9.10;99.90
2973;DHT22;1496;51.404;7.232;2022-11-11T04:37:46;9.10;99.90
2973;DHT22;1496;51.404;7.232;2022-11-11T04:40:31;9.10;99.90
2973;DHT22;1496;51.404;7.232;2022-11-11T04:43:34;9.10;99.90
2973;DHT22;1496;51.404;7.232;2022-11-11T04:46:38;9.10;99.90
2973;DHT22;1496;51.404;7.232;2022-11-11T04:49:23;9.00;99.90
2973;DHT22;1496;51.404;7.232;2022-11-11T04:52:08;9.00;99.90
2973;DHT22;1496;51.404;7.232;2022-11-11T04:55:15;9.00;99.90
2973;DHT22;1496;51.404;7.232;2022-11-11T04:58:20;8.90;99.90
2973;DHT22;1496;51.404;7.232;2022-11-11T05:01:04;8.90;99.90
2973;DHT22;1496;51.404;7.232;2022-11-11T05:03:48;9.00;99.90
2973;DHT22;1496;51.404;7.232;2022-11-11T05:06:32;9.00;99.90
2973;DHT22;1496;51.404;7.232;2022-11-11T05:09:36;9.00;99.90
2973;DHT22;1496;51.404;7.232;2022-11-11T05:12:20;9.00;99.90
2973;DHT22;1496;51.404;7.232;2022-11-11T05:15:06;8.90;99.90
2973;DHT22;1496;51.404;7.232;2022-11-11T05:18:09;8.90;99.90
2973;DHT22;1496;51.404;7.232;2022-11-11T05:21:18;8.90;99.90
2973;DHT22;1496;51.404;7.232;2022-11-11T05:24:06;8.90;99.90
2973;DHT22;1496;51.404;7.232;2022-11-11T05:30:35;8.90;99.90
2973;DHT22;1496;51.404;7.232;2022-11-11T05:33:24;8.90;99.90
2973;DHT22;1496;51.404;7.232;2022-11-11T05:36:08;8.90;99.90
2973;DHT22;1496;51.404;7.232;2022-11-11T05:38:52;8.90;99.90
2973;DHT22;1496;51.404;7.232;2022-11-11T05:41:36;8.90;99.90
2973;DHT22;1496;51.404;7.232;2022-11-11T05:44:20;8.90;99.90
2973;DHT22;1496;51.404;7.232;2022-11-11T05:47:05;8.90;99.90
2973;DHT22;1496;51.404;7.232;2022-11-11T05:49:49;9.00;99.90
2973;DHT22;1496;51.404;7.232;2022-11-11T05:52:33;8.90;99.90
2973;DHT22;1496;51.404;7.232;2022-11-11T05:55:17;8.90;99.90
2973;DHT22;1496;51.404;7.232;2022-11-11T05:58:01;8.90;99.90
2973;DHT22;1496;51.404;7.232;2022-11-11T06:00:46;8.90;99.90
2973;DHT22;1496;51.404;7.232;2022-11-11T06:03:30;8.90;99.90
2973;DHT22;1496;51.404;7.232;2022-11-11T06:06:15;8.80;99.90
2973;DHT22;1496;51.404;7.232;2022-11-11T06:08:59;8.80;99.90
2973;DHT22;1496;51.404;7.232;2022-11-11T06:11:43;8.80;99.90
2973;DHT22;1496;51.404;7.232;2022-11-11T06:14:27;8.80;99.90
2973;DHT22;1496;51.404;7.232;2022-11-11T06:17:11;8.80;99.90
2973;DHT22;1496;51.404;7.232;2022-11-11T06:19:55;8.80;99.90
2973;DHT22;1496;51.404;7.232;2022-11-11T06:22:40;8.80;99.90
2973;DHT22;1496;51.404;7.232;2022-11-11T06:25:39;8.90;99.90
2973;DHT22;1496;51.404;7.232;2022-11-11T06:28:43;8.90;99.90
2973;DHT22;1496;51.404;7.232;2022-11-11T06:31:28;8.90;99.90
2973;DHT22;1496;51.404;7.232;2022-11-11T06:34:12;8.90;99.90
2973;DHT22;1496;51.404;7.232;2022-11-11T06:36:56;9.00;99.90
2973;DHT22;1496;51.404;7.232;2022-11-11T06:39:41;8.90;99.90
2973;DHT22;1496;51.404;7.232;2022-11-11T06:42:25;8.90;99.90
2973;DHT22;1496;51.404;7.232;2022-11-11T06:45:09;9.00;99.90
2973;DHT22;1496;51.404;7.232;2022-11-11T06:47:53;9.00;99.90
2973;DHT22;1496;51.404;7.232;2022-11-11T06:50:37;9.00;99.90
2973;DHT22;1496;51.404;7.232;2022-11-11T06:53:22;9.00;99.90
2973;DHT22;1496;51.404;7.232;2022-11-11T06:56:07;9.00;99.90
2973;DHT22;1496;51.404;7.232;2022-11-11T06:58:51;9.00;99.90
2973;DHT22;1496;51.404;7.232;2022-11-11T07:01:35;8.90;99.90
2973;DHT22;1496;51.404;7.232;2022-11-11T07:04:20;8.70;99.90
2973;DHT22;1496;51.404;7.232;2022-11-11T07:07:04;8.60;99.90
2973;DHT22;1496;51.404;7.232;2022-11-11T07:09:48;8.60;99.90
2973;DHT22;1496;51.404;7.232;2022-11-11T07:12:32;8.60;99.90
2973;DHT22;1496;51.404;7.232;2022-11-11T07:15:17;8.70;99.90
2973;DHT22;1496;51.404;7.232;2022-11-11T07:18:02;8.70;99.90
2973;DHT22;1496;51.404;7.232;2022-11-11T07:20:46;8.70;99.90
2973;DHT22;1496;51.404;7.232;2022-11-11T07:23:31;8.70;99.90
2973;DHT22;1496;51.404;7.232;2022-11-11T07:26:16;8.80;99.90
2973;DHT22;1496;51.404;7.232;2022-11-11T07:29:00;8.80;99.90
2973;DHT22;1496;51.404;7.232;2022-11-11T07:31:44;8.90;99.90
2973;DHT22;1496;51.404;7.232;2022-11-11T07:34:28;8.90;99.90
2973;DHT22;1496;51.404;7.232;2022-11-11T07:37:13;8.90;99.90
2973;DHT22;1496;51.404;7.232;2022-11-11T07:39:57;8.90;99.90
2973;DHT22;1496;51.404;7.232;2022-11-11T07:42:42;9.00;99.90
2973;DHT22;1496;51.404;7.232;2022-11-11T07:45:26;9.00;99.90
2973;DHT22;1496;51.404;7.232;2022-11-11T07:48:10;9.00;99.90
2973;DHT22;1496;51.404;7.232;2022-11-11T07:50:55;9.00;99.90
2973;DHT22;1496;51.404;7.232;2022-11-11T07:53:39;9.00;99.90
2973;DHT22;1496;51.404;7.232;2022-11-11T07:56:24;9.00;99.90
2973;DHT22;1496;51.404;7.232;2022-11-11T07:59:08;9.10;99.90
2973;DHT22;1496;51.404;7.232;2022-11-11T08:01:52;9.20;99.90
2973;DHT22;1496;51.404;7.232;2022-11-11T08:04:37;9.30;99.90
2973;DHT22;1496;51.404;7.232;2022-11-11T08:07:22;9.30;99.90
2973;DHT22;1496;51.404;7.232;2022-11-11T08:10:07;9.40;99.90
2973;DHT22;1496;51.404;7.232;2022-11-11T08:12:54;9.40;99.90
2973;DHT22;1496;51.404;7.232;2022-11-11T08:15:58;9.50;99.90
2973;DHT22;1496;51.404;7.232;2022-11-11T08:18:42;9.50;99.90
2973;DHT22;1496;51.404;7.232;2022-11-11T08:21:26;9.60;99.90
2973;DHT22;1496;51.404;7.232;2022-11-11T08:24:10;9.70;99.90
2973;DHT22;1496;51.404;7.232;2022-11-11T08:26:54;9.70;99.90
2973;DHT22;1496;51.404;7.232;2022-11-11T08:29:38;9.80;99.90
2973;DHT22;1496;51.404;7.232;2022-11-11T08:32:22;9.90;99.90
2973;DHT22;1496;51.404;7.232;2022-11-11T08:35:07;10.00;99.90
2973;DHT22;1496;51.404;7.232;2022-11-11T08:37:52;10.00;99.90
2973;DHT22;1496;51.404;7.232;2022-11-11T08:40:36;10.10;99.90
2973;DHT22;1496;51.404;7.232;2022-11-11T08:43:20;10.10;99.90
2973;DHT22;1496;51.404;7.232;2022-11-11T08:46:05;10.10;99.90
2973;DHT22;1496;51.404;7.232;2022-11-11T08:48:49;10.20;99.90
2973;DHT22;1496;51.404;7.232;2022-11-11T08:51:34;10.30;99.90
2973;DHT22;1496;51.404;7.232;2022-11-11T08:54:19;10.30;99.90
2973;DHT22;1496;51.404;7.232;2022-11-11T08:57:03;10.40;99.90
2973;DHT22;1496;51.404;7.232;2022-11-11T08:59:47;10.50;99.70
2973;DHT22;1496;51.404;7.232;2022-11-11T09:02:31;10.60;99.40
2973;DHT22;1496;51.404;7.232;2022-11-11T09:05:15;10.70;99.40
2973;DHT22;1496;51.404;7.232;2022-11-11T09:08:01;10.70;99.60
2973;DHT22;1496;51.404;7.232;2022-11-11T09:10:45;10.80;99.90
2973;DHT22;1496;51.404;7.232;2022-11-11T09:13:29;10.80;99.90
2973;DHT22;1496;51.404;7.232;2022-11-11T09:16:14;10.90;98.20
2973;DHT22;1496;51.404;7.232;2022-11-11T09:18:59;10.90;99.00
2973;DHT22;1496;51.404;7.232;2022-11-11T09:21:43;11.00;96.60
2973;DHT22;1496;51.404;7.232;2022-11-11T09:24:28;11.10;96.10
2973;DHT22;1496;51.404;7.232;2022-11-11T09:27:12;11.10;93.80
2973;DHT22;1496;51.404;7.232;2022-11-11T09:29:56;11.20;95.10
2973;DHT22;1496;51.404;7.232;2022-11-11T09:32:40;11.30;93.50
2973;DHT22;1496;51.404;7.232;2022-11-11T09:35:25;11.40;90.70
2973;DHT22;1496;51.404;7.232;2022-11-11T09:38:09;11.60;92.30
2973;DHT22;1496;51.404;7.232;2022-11-11T09:41:14;11.60;91.20
2973;DHT22;1496;51.404;7.232;2022-11-11T09:44:02;11.60;91.70
2973;DHT22;1496;51.404;7.232;2022-11-11T09:47:18;11.70;91.10
2973;DHT22;1496;51.404;7.232;2022-11-11T09:50:12;11.80;83.30
2973;DHT22;1496;51.404;7.232;2022-11-11T09:53:16;11.90;84.80
2973;DHT22;1496;51.404;7.232;2022-11-11T09:56:12;11.90;85.40
2973;DHT22;1496;51.404;7.232;2022-11-11T10:01:45;12.00;82.30
2973;DHT22;1496;51.404;7.232;2022-11-11T10:04:38;12.10;94.40
2973;DHT22;1496;51.404;7.232;2022-11-11T10:07:37;12.10;82.80
2973;DHT22;1496;51.404;7.232;2022-11-11T10:13:31;12.30;76.10
2973;DHT22;1496;51.404;7.232;2022-11-11T10:22:39;12.60;73.80
2973;DHT22;1496;51.404;7.232;2022-11-11T10:25:25;12.60;74.70
2973;DHT22;1496;51.404;7.232;2022-11-11T10:28:18;12.60;73.50
2973;DHT22;1496;51.404;7.232;2022-11-11T10:31:09;12.60;72.70
2973;DHT22;1496;51.404;7.232;2022-11-11T10:34:03;12.70;75.20
2973;DHT22;1496;51.404;7.232;2022-11-11T10:36:53;12.70;69.40
2973;DHT22;1496;51.404;7.232;2022-11-11T10:39:44;12.70;74.10
2973;DHT22;1496;51.404;7.232;2022-11-11T10:42:31;12.90;64.10
2973;DHT22;1496;51.404;7.232;2022-11-11T10:45:21;12.90;65.80
2973;DHT22;1496;51.404;7.232;2022-11-11T10:48:12;13.00;66.90
2973;DHT22;1496;51.404;7.232;2022-11-11T10:50:59;13.00;63.90
2973;DHT22;1496;51.404;7.232;2022-11-11T10:54:15;13.10;59.40
2973;DHT22;1496;51.404;7.232;2022-11-11T10:57:09;13.30;59.80
2973;DHT22;1496;51.404;7.232;2022-11-11T11:00:02;13.30;57.20
2973;DHT22;1496;51.404;7.232;2022-11-11T11:03:02;13.40;58.60
2973;DHT22;1496;51.404;7.232;2022-11-11T11:06:13;13.50;55.80
2973;DHT22;1496;51.404;7.232;2022-11-11T11:09:14;13.60;57.90
2973;DHT22;1496;51.404;7.232;2022-11-11T11:14:54;13.70;53.80
2973;DHT22;1496;51.404;7.232;2022-11-11T11:21:04;13.80;51.80
2973;DHT22;1496;51.404;7.232;2022-11-11T11:23:49;13.90;50.50
2973;DHT22;1496;51.404;7.232;2022-11-11T11:26:45;13.90;49.70
2973;DHT22;1496;51.404;7.232;2022-11-11T11:29:38;13.90;48.80
2973;DHT22;1496;51.404;7.232;2022-11-11T11:32:30;13.90;46.00
2973;DHT22;1496;51.404;7.232;2022-11-11T11:35:37;13.90;41.80
2973;DHT22;1496;51.404;7.232;2022-11-11T11:38:39;13.80;40.80
2973;DHT22;1496;51.404;7.232;2022-11-11T11:41:40;13.90;42.30
2973;DHT22;1496;51.404;7.232;2022-11-11T11:44:28;13.90;40.20
2973;DHT22;1496;51.404;7.232;2022-11-11T11:50:47;13.90;39.60
2973;DHT22;1496;51.404;7.232;2022-11-11T11:56:44;13.90;37.30
2973;DHT22;1496;51.404;7.232;2022-11-11T11:59:45;13.90;38.10
2973;DHT22;1496;51.404;7.232;2022-11-11T12:05:33;13.90;33.00
2973;DHT22;1496;51.404;7.232;2022-11-11T12:11:53;13.70;34.10
2973;DHT22;1496;51.404;7.232;2022-11-11T12:15:05;13.70;30.50
2973;DHT22;1496;51.404;7.232;2022-11-11T12:18:25;13.60;29.70
2973;DHT22;1496;51.404;7.232;2022-11-11T12:21:16;13.60;29.00
2973;DHT22;1496;51.404;7.232;2022-11-11T12:24:26;13.60;30.90
2973;DHT22;1496;51.404;7.232;2022-11-11T12:30:17;13.60;28.90
2973;DHT22;1496;51.404;7.232;2022-11-11T12:36:23;13.60;28.10
2973;DHT22;1496;51.404;7.232;2022-11-11T12:47:57;13.70;26.80
2973;DHT22;1496;51.404;7.232;2022-11-11T12:53:46;13.70;26.50
2973;DHT22;1496;51.404;7.232;2022-11-11T12:56:53;13.70;26.30
2973;DHT22;1496;51.404;7.232;2022-11-11T13:03:12;13.70;27.00
2973;DHT22;1496;51.404;7.232;2022-11-11T13:06:35;13.70;25.40
2973;DHT22;1496;51.404;7.232;2022-11-11T13:09:37;13.70;25.10
2973;DHT22;1496;51.404;7.232;2022-11-11T13:12:36;13.80;24.90
2973;DHT22;1496;51.404;7.232;2022-11-11T13:15:25;13.80;25.70
2973;DHT22;1496;51.404;7.232;2022-11-11T13:18:13;13.80;25.70
2973;DHT22;1496;51.404;7.232;2022-11-11T13:21:14;13.90;24.90
2973;DHT22;1496;51.404;7.232;2022-11-11T13:23:59;13.90;24.70
2973;DHT22;1496;51.404;7.232;2022-11-11T13:26:56;13.90;24.70
2973;DHT22;1496;51.404;7.232;2022-11-11T13:29:46;13.90;25.10
2973;DHT22;1496;51.404;7.232;2022-11-11T13:32:43;13.80;24.90
2973;DHT22;1496;51.404;7.232;2022-11-11T13:38:43;13.80;23.60
2973;DHT22;1496;51.404;7.232;2022-11-11T13:41:34;13.70;25.10
2973;DHT22;1496;51.404;7.232;2022-11-11T13:44:36;13.70;31.70
2973;DHT22;1496;51.404;7.232;2022-11-11T13:47:44;13.70;23.80
2973;DHT22;1496;51.404;7.232;2022-11-11T13:50:32;13.80;22.20
2973;DHT22;1496;51.404;7.232;2022-11-11T13:53:31;13.70;22.50
2973;DHT22;1496;51.404;7.232;2022-11-11T13:56:42;13.70;22.00
2973;DHT22;1496;51.404;7.232;2022-11-11T13:59:31;13.70;22.60
2973;DHT22;1496;51.404;7.232;2022-11-11T14:07:55;13.40;26.20
2973;DHT22;1496;51.404;7.232;2022-11-11T14:10:52;13.40;26.70
2973;DHT22;1496;51.404;7.232;2022-11-11T14:13:38;13.40;26.40
2973;DHT22;1496;51.404;7.232;2022-11-11T14:25:25;13.40;28.20
2973;DHT22;1496;51.404;7.232;2022-11-11T14:28:26;13.30;28.30
2973;DHT22;1496;51.404;7.232;2022-11-11T14:37:11;13.30;30.50
2973;DHT22;1496;51.404;7.232;2022-11-11T14:39:59;13.30;29.90
2973;DHT22;1496;51.404;7.232;2022-11-11T14:42:44;13.20;30.90
2973;DHT22;1496;51.404;7.232;2022-11-11T14:48:49;13.20;32.30
2973;DHT22;1496;51.404;7.232;2022-11-11T14:54:47;13.20;33.50
2973;DHT22;1496;51.404;7.232;2022-11-11T15:00:30;13.10;34.50
2973;DHT22;1496;51.404;7.232;2022-11-11T15:06:52;13.00;33.40
2973;DHT22;1496;51.404;7.232;2022-11-11T15:13:47;12.90;34.40
2973;DHT22;1496;51.404;7.232;2022-11-11T15:25:42;12.60;35.10
2973;DHT22;1496;51.404;7.232;2022-11-11T15:28:49;12.60;36.40
2973;DHT22;1496;51.404;7.232;2022-11-11T15:31:57;12.60;37.70
2973;DHT22;1496;51.404;7.232;2022-11-11T15:34:50;12.50;38.60
2973;DHT22;1496;51.404;7.232;2022-11-11T15:37:37;12.40;39.30
2973;DHT22;1496;51.404;7.232;2022-11-11T15:40:24;12.40;40.50
2973;DHT22;1496;51.404;7.232;2022-11-11T15:43:35;12.40;40.70
2973;DHT22;1496;51.404;7.232;2022-11-11T15:46:25;12.30;41.50
2973;DHT22;1496;51.404;7.232;2022-11-11T15:49:17;12.30;42.70
2973;DHT22;1496;51.404;7.232;2022-11-11T15:55:22;12.20;43.10
2973;DHT22;1496;51.404;7.232;2022-11-11T15:58:24;12.20;44.10
2973;DHT22;1496;51.404;7.232;2022-11-11T16:01:10;12.20;44.30
2973;DHT22;1496;51.404;7.232;2022-11-11T16:03:55;12.10;45.50
2973;DHT22;1496;51.404;7.232;2022-11-11T16:06:40;12.20;45.30
2973;DHT22;1496;51.404;7.232;2022-11-11T16:09:27;12.10;46.10
2973;DHT22;1496;51.404;7.232;2022-11-11T16:12:17;12.10;46.40
2973;DHT22;1496;51.404;7.232;2022-11-11T16:15:06;12.10;47.50
2973;DHT22;1496;51.404;7.232;2022-11-11T16:17:53;12.00;47.50
2973;DHT22;1496;51.404;7.232;2022-11-11T16:20:44;11.90;46.80
2973;DHT22;1496;51.404;7.232;2022-11-11T16:23:33;11.90;48.00
2973;DHT22;1496;51.404;7.232;2022-11-11T16:26:18;11.80;48.00
2973;DHT22;1496;51.404;7.232;2022-11-11T16:29:13;11.90;48.40
2973;DHT22;1496;51.404;7.232;2022-11-11T16:31:58;11.80;48.90
2973;DHT22;1496;51.404;7.232;2022-11-11T16:34:43;11.90;48.90
2973;DHT22;1496;51.404;7.232;2022-11-11T16:37:28;11.80;49.30
2973;DHT22;1496;51.404;7.232;2022-11-11T16:40:39;11.70;49.20
2973;DHT22;1496;51.404;7.232;2022-11-11T16:43:28;11.80;48.50
2973;DHT22;1496;51.404;7.232;2022-11-11T16:47:00;11.80;48.50
2973;DHT22;1496;51.404;7.232;2022-11-11T16:49:45;11.70;49.20
2973;DHT22;1496;51.404;7.232;2022-11-11T16:58:16;11.50;48.60
2973;DHT22;1496;51.404;7.232;2022-11-11T17:01:02;11.50;48.40
2973;DHT22;1496;51.404;7.232;2022-11-11T17:03:58;11.50;47.60
2973;DHT22;1496;51.404;7.232;2022-11-11T17:06:57;11.60;46.50
2973;DHT22;1496;51.404;7.232;2022-11-11T17:09:44;11.60;46.30
2973;DHT22;1496;51.404;7.232;2022-11-11T17:12:30;11.50;46.50
2973;DHT22;1496;51.404;7.232;2022-11-11T17:15:15;11.50;47.40
2973;DHT22;1496;51.404;7.232;2022-11-11T17:18:00;11.40;46.50
2973;DHT22;1496;51.404;7.232;2022-11-11T17:20:45;11.50;46.30
2973;DHT22;1496;51.404;7.232;2022-11-11T17:23:29;11.50;45.60
2973;DHT22;1496;51.404;7.232;2022-11-11T17:26:16;11.50;45.50
2973;DHT22;1496;51.404;7.232;2022-11-11T17:29:00;11.50;45.50
2973;DHT22;1496;51.404;7.232;2022-11-11T17:31:45;11.40;46.30
2973;DHT22;1496;51.404;7.232;2022-11-11T17:34:29;11.40;44.90
2973;DHT22;1496;51.404;7.232;2022-11-11T17:37:14;11.40;45.60
2973;DHT22;1496;51.404;7.232;2022-11-11T17:39:58;11.40;45.20
2973;DHT22;1496;51.404;7.232;2022-11-11T17:42:42;11.40;43.90
2973;DHT22;1496;51.404;7.232;2022-11-11T17:45:26;11.40;43.00
2973;DHT22;1496;51.404;7.232;2022-11-11T17:48:11;11.30;42.50
2973;DHT22;1496;51.404;7.232;2022-11-11T17:50:55;11.30;43.10
2973;DHT22;1496;51.404;7.232;2022-11-11T17:53:40;11.30;43.00
2973;DHT22;1496;51.404;7.232;2022-11-11T17:56:24;11.10;43.90
2973;DHT22;1496;51.404;7.232;2022-11-11T17:59:09;11.00;43.00
2973;DHT22;1496;51.404;7.232;2022-11-11T18:01:54;11.10;43.90
2973;DHT22;1496;51.404;7.232;2022-11-11T18:04:39;11.10;43.50
2973;DHT22;1496;51.404;7.232;2022-11-11T18:07:23;11.20;42.70
2973;DHT22;1496;51.404;7.232;2022-11-11T18:10:08;11.10;43.50
2973;DHT22;1496;51.404;7.232;2022-11-11T18:12:53;11.10;41.90
2973;DHT22;1496;51.404;7.232;2022-11-11T18:15:37;11.10;41.80
2973;DHT22;1496;51.404;7.232;2022-11-11T18:18:22;11.10;43.10
2973;DHT22;1496;51.404;7.232;2022-11-11T18:21:11;10.90;44.10
2973;DHT22;1496;51.404;7.232;2022-11-11T18:23:55;10.90;44.70
2973;DHT22;1496;51.404;7.232;2022-11-11T18:26:41;10.80;44.40
2973;DHT22;1496;51.404;7.232;2022-11-11T18:29:26;10.70;45.10
2973;DHT22;1496;51.404;7.232;2022-11-11T18:32:11;10.70;45.50
2973;DHT22;1496;51.404;7.232;2022-11-11T18:34:56;10.70;46.50
2973;DHT22;1496;51.404;7.232;2022-11-11T18:37:40;10.60;45.30
2973;DHT22;1496;51.404;7.232;2022-11-11T18:40:32;10.60;45.70
2973;DHT22;1496;51.404;7.232;2022-11-11T18:43:19;10.70;45.30
2973;DHT22;1496;51.404;7.232;2022-11-11T18:46:08;10.70;46.00
2973;DHT22;1496;51.404;7.232;2022-11-11T18:48:59;10.70;44.80
2973;DHT22;1496;51.404;7.232;2022-11-11T18:51:43;10.80;44.10
2973;DHT22;1496;51.404;7.232;2022-11-11T18:54:27;10.80;43.50
2973;DHT22;1496;51.404;7.232;2022-11-11T18:57:11;10.90;42.70
2973;DHT22;1496;51.404;7.232;2022-11-11T19:02:44;11.00;42.50
2973;DHT22;1496;51.404;7.232;2022-11-11T19:05:29;11.00;36.70
2973;DHT22;1496;51.404;7.232;2022-11-11T19:08:14;11.00;42.10
2973;DHT22;1496;51.404;7.232;2022-11-11T19:10:59;11.00;42.20
2973;DHT22;1496;51.404;7.232;2022-11-11T19:13:43;11.00;41.40
2973;DHT22;1496;51.404;7.232;2022-11-11T19:16:27;11.00;41.20
2973;DHT22;1496;51.404;7.232;2022-11-11T19:19:12;11.00;40.80
2973;DHT22;1496;51.404;7.232;2022-11-11T19:22:15;11.10;40.10
2973;DHT22;1496;51.404;7.232;2022-11-11T19:25:00;11.10;39.70
2973;DHT22;1496;51.404;7.232;2022-11-11T19:27:46;11.00;39.30
2973;DHT22;1496;51.404;7.232;2022-11-11T19:30:40;11.00;39.50
2973;DHT22;1496;51.404;7.232;2022-11-11T19:33:24;10.90;39.80
2973;DHT22;1496;51.404;7.232;2022-11-11T19:36:11;10.90;39.20
2973;DHT22;1496;51.404;7.232;2022-11-11T19:38:59;11.00;38.90
2973;DHT22;1496;51.404;7.232;2022-11-11T19:41:43;11.00;39.30
2973;DHT22;1496;51.404;7.232;2022-11-11T19:44:28;11.00;48.90
2973;DHT22;1496;51.404;7.232;2022-11-11T19:47:12;10.90;38.40
2973;DHT22;1496;51.404;7.232;2022-11-11T19:49:56;10.90;38.30
2973;DHT22;1496;51.404;7.232;2022-11-11T19:52:40;10.90;37.00
2973;DHT22;1496;51.404;7.232;2022-11-11T19:55:24;10.90;37.50
2973;DHT22;1496;51.404;7.232;2022-11-11T19:58:08;10.90;37.00
2973;DHT22;1496;51.404;7.232;2022-11-11T20:00:54;10.90;36.60
2973;DHT22;1496;51.404;7.232;2022-11-11T20:03:39;10.90;36.50
2973;DHT22;1496;51.404;7.232;2022-11-11T20:06:34;10.90;38.10
2973;DHT22;1496;51.404;7.232;2022-11-11T20:09:18;10.80;35.80
2973;DHT22;1496;51.404;7.232;2022-11-11T20:12:03;10.80;35.90
2973;DHT22;1496;51.404;7.232;2022-11-11T20:14:47;10.90;35.80
2973;DHT22;1496;51.404;7.232;2022-11-11T20:17:34;10.80;35.40
2973;DHT22;1496;51.404;7.232;2022-11-11T20:20:22;10.70;35.60
2973;DHT22;1496;51.404;7.232;2022-11-11T20:23:07;10.70;35.50
2973;DHT22;1496;51.404;7.232;2022-11-11T20:25:52;10.60;35.40
2973;DHT22;1496;51.404;7.232;2022-11-11T20:28:37;10.70;35.30
2973;DHT22;1496;51.404;7.232;2022-11-11T20:31:23;10.70;34.90